createdAt,value
2018-03-16T00:00:28.743Z,17.22
2018-03-16T00:02:54.553Z,17.31
2018-03-16T00:05:20.355Z,17.36
2018-03-16T00:07:46.990Z,17.25
2018-03-16T00:10:13.779Z,17.32
2018-03-16T00:12:39.587Z,17.33
2018-03-16T00:15:05.458Z,17.29
2018-03-16T00:17:32.265Z,17.25
2018-03-16T00:19:59.014Z,17.27
2018-03-16T00:22:31.043Z,17.17
2018-03-16T00:24:57.804Z,17.19
2018-03-16T00:27:23.614Z,17.28
2018-03-16T00:29:50.466Z,17.17
2018-03-16T00:32:17.207Z,17.07
2018-03-16T00:34:43.974Z,17.02
2018-03-16T00:37:10.632Z,17.26
2018-03-16T00:39:36.451Z,17.27
2018-03-16T00:42:03.111Z,17.20
2018-03-16T00:44:30.022Z,17.19
2018-03-16T00:46:56.678Z,17.15
2018-03-16T00:49:22.516Z,17.28
2018-03-16T00:51:49.169Z,17.19
2018-03-16T00:54:15.935Z,17.33
2018-03-16T00:56:42.612Z,17.39
2018-03-16T00:59:08.455Z,17.13
2018-03-16T01:01:35.197Z,17.19
2018-03-16T01:04:02.003Z,17.23
2018-03-16T01:06:27.823Z,17.14
2018-03-16T01:08:53.626Z,17.27
2018-03-16T01:11:20.381Z,17.16
2018-03-16T01:13:46.185Z,17.28
2018-03-16T01:16:12.972Z,17.28
2018-03-16T01:18:38.843Z,17.33
2018-03-16T01:21:04.666Z,17.38
2018-03-16T01:23:30.479Z,17.22
2018-03-16T01:25:57.378Z,17.04
2018-03-16T01:28:23.226Z,17.17
2018-03-16T01:30:49.049Z,17.22
2018-03-16T01:33:15.862Z,17.30
2018-03-16T01:35:41.681Z,17.23
2018-03-16T01:38:08.505Z,17.27
2018-03-16T01:40:34.315Z,17.34
2018-03-16T01:43:00.914Z,17.33
2018-03-16T01:45:27.662Z,17.24
2018-03-16T01:47:53.473Z,17.15
2018-03-16T01:50:20.075Z,17.01
2018-03-16T01:52:52.210Z,17.26
2018-03-16T01:55:18.997Z,17.16
2018-03-16T01:57:45.738Z,17.07
2018-03-16T02:00:12.492Z,17.22
2018-03-16T02:02:38.297Z,17.12
2018-03-16T02:05:04.111Z,17.25
2018-03-16T02:07:30.946Z,17.17
2018-03-16T02:09:56.755Z,17.11
2018-03-16T02:12:22.565Z,17.20
2018-03-16T02:14:48.379Z,17.13
2018-03-16T02:17:14.198Z,16.91
2018-03-16T02:19:40.964Z,17.05
2018-03-16T02:22:06.775Z,17.05
2018-03-16T02:24:32.589Z,17.22
2018-03-16T02:26:58.400Z,16.99
2018-03-16T02:29:24.206Z,17.27
2018-03-16T02:31:50.057Z,17.16
2018-03-16T02:34:15.878Z,17.15
2018-03-16T02:36:41.691Z,17.04
2018-03-16T02:39:07.531Z,17.08
2018-03-16T02:41:33.342Z,17.18
2018-03-16T02:43:59.157Z,17.09
2018-03-16T02:46:24.961Z,17.01
2018-03-16T02:48:50.770Z,17.03
2018-03-16T02:51:16.579Z,16.95
2018-03-16T02:53:42.383Z,17.34
2018-03-16T02:56:08.202Z,17.18
2018-03-16T02:58:34.022Z,16.99
2018-03-16T03:00:59.834Z,16.90
2018-03-16T03:03:26.666Z,17.14
2018-03-16T03:05:52.692Z,16.92
2018-03-16T03:08:18.542Z,17.13
2018-03-16T03:10:44.355Z,17.15
2018-03-16T03:13:10.206Z,17.23
2018-03-16T03:15:36.013Z,17.26
2018-03-16T03:18:01.823Z,17.11
2018-03-16T03:20:28.451Z,17.14
2018-03-16T03:22:54.258Z,17.17
2018-03-16T03:25:20.106Z,17.00
2018-03-16T03:27:45.910Z,17.16
2018-03-16T03:30:11.723Z,17.09
2018-03-16T03:32:37.534Z,17.00
2018-03-16T03:35:03.374Z,17.19
2018-03-16T03:37:29.193Z,17.21
2018-03-16T03:39:54.998Z,16.94
2018-03-16T03:42:20.803Z,17.07
2018-03-16T03:44:46.601Z,17.15
2018-03-16T03:47:13.222Z,17.13
2018-03-16T03:49:39.990Z,17.06
2018-03-16T03:52:06.791Z,17.15
2018-03-16T03:54:33.506Z,17.03
2018-03-16T03:56:59.346Z,17.05
2018-03-16T03:59:25.150Z,16.89
2018-03-16T04:01:51.911Z,17.15
2018-03-16T04:04:18.546Z,17.02
2018-03-16T04:06:45.181Z,16.98
2018-03-16T04:09:12.026Z,17.01
2018-03-16T04:11:38.769Z,16.85
2018-03-16T04:14:05.390Z,16.60
2018-03-16T04:16:31.241Z,16.93
2018-03-16T04:18:57.906Z,16.93
2018-03-16T04:21:23.721Z,17.03
2018-03-16T04:23:50.346Z,17.08
2018-03-16T04:26:17.183Z,17.18
2018-03-16T04:28:42.993Z,17.03
2018-03-16T04:31:09.776Z,16.78
2018-03-16T04:33:36.531Z,17.01
2018-03-16T04:36:03.322Z,16.78
2018-03-16T04:38:29.133Z,17.02
2018-03-16T04:41:02.863Z,16.85
2018-03-16T04:43:29.786Z,16.67
2018-03-16T04:45:56.421Z,16.88
2018-03-16T04:48:23.226Z,16.94
2018-03-16T04:50:49.931Z,17.09
2018-03-16T04:53:15.742Z,17.06
2018-03-16T04:55:41.554Z,17.05
2018-03-16T04:58:08.265Z,17.04
2018-03-16T05:00:34.074Z,17.04
2018-03-16T05:03:00.691Z,17.00
2018-03-16T05:05:26.498Z,17.06
2018-03-16T05:07:53.143Z,16.90
2018-03-16T05:10:18.962Z,16.86
2018-03-16T05:12:44.818Z,16.88
2018-03-16T05:15:10.622Z,17.09
2018-03-16T05:17:36.462Z,16.75
2018-03-16T05:20:02.264Z,17.08
2018-03-16T05:22:29.006Z,16.94
2018-03-16T05:24:54.811Z,16.97
2018-03-16T05:27:20.663Z,16.74
2018-03-16T05:29:46.475Z,16.73
2018-03-16T05:32:12.294Z,16.87
2018-03-16T05:34:38.534Z,16.85
2018-03-16T05:37:05.316Z,16.87
2018-03-16T05:39:31.121Z,16.77
2018-03-16T05:41:56.930Z,16.90
2018-03-16T05:44:22.912Z,16.84
2018-03-16T05:46:48.759Z,16.90
2018-03-16T05:49:15.457Z,16.91
2018-03-16T05:51:41.264Z,16.75
2018-03-16T05:54:07.969Z,16.77
2018-03-16T05:56:34.754Z,16.88
2018-03-16T05:59:01.482Z,16.73
2018-03-16T06:01:27.286Z,16.94
2018-03-16T06:03:53.096Z,16.66
2018-03-16T06:06:19.870Z,16.90
2018-03-16T06:08:45.674Z,17.00
2018-03-16T06:11:11.486Z,16.82
2018-03-16T06:13:37.293Z,16.89
2018-03-16T06:16:03.948Z,16.70
2018-03-16T06:18:29.750Z,16.77
2018-03-16T06:20:55.594Z,16.71
2018-03-16T06:23:21.408Z,16.69
2018-03-16T06:25:47.218Z,16.71
2018-03-16T06:28:13.031Z,16.87
2018-03-16T06:30:39.820Z,16.92
2018-03-16T06:33:06.618Z,16.96
2018-03-16T06:35:32.435Z,16.85
2018-03-16T06:37:58.247Z,16.63
2018-03-16T06:40:24.067Z,16.85
2018-03-16T06:42:49.897Z,16.76
2018-03-16T06:45:15.702Z,16.84
2018-03-16T06:47:41.527Z,16.89
2018-03-16T06:50:07.358Z,17.02
2018-03-16T06:52:33.210Z,16.90
2018-03-16T06:54:59.022Z,16.67
2018-03-16T06:57:24.854Z,16.89
2018-03-16T06:59:50.663Z,16.83
2018-03-16T07:02:16.474Z,16.82
2018-03-16T07:04:42.285Z,16.62
2018-03-16T07:07:08.170Z,16.90
2018-03-16T07:09:34.007Z,16.93
2018-03-16T07:11:59.834Z,17.05
2018-03-16T07:14:25.728Z,17.01
2018-03-16T07:16:58.480Z,16.81
2018-03-16T07:19:24.290Z,16.83
2018-03-16T07:21:50.122Z,16.94
2018-03-16T07:24:15.937Z,16.91
2018-03-16T07:26:41.747Z,16.85
2018-03-16T07:29:07.563Z,16.75
2018-03-16T07:31:33.379Z,16.81
2018-03-16T07:33:59.190Z,16.79
2018-03-16T07:36:25.037Z,16.78
2018-03-16T07:38:50.886Z,16.58
2018-03-16T07:41:17.532Z,16.82
2018-03-16T07:43:44.310Z,16.84
2018-03-16T07:46:16.105Z,17.03
2018-03-16T07:48:42.826Z,16.87
2018-03-16T07:51:08.639Z,16.59
2018-03-16T07:53:35.254Z,16.79
2018-03-16T07:56:01.075Z,16.81
2018-03-16T07:58:26.926Z,16.64
2018-03-16T08:00:52.735Z,16.80
2018-03-16T08:03:19.458Z,16.81
2018-03-16T08:05:45.267Z,16.58
2018-03-16T08:08:12.194Z,16.14
2018-03-16T08:10:38.994Z,15.96
2018-03-16T08:13:04.809Z,15.98
2018-03-16T08:15:30.619Z,16.02
2018-03-16T08:17:56.450Z,15.78
2018-03-16T08:20:22.266Z,16.02
2018-03-16T08:22:48.070Z,15.65
2018-03-16T08:25:13.883Z,16.05
2018-03-16T08:27:39.700Z,15.88
2018-03-16T08:30:06.410Z,15.91
2018-03-16T08:32:33.195Z,16.29
2018-03-16T08:34:59.070Z,16.63
2018-03-16T08:37:25.849Z,16.73
2018-03-16T08:39:51.703Z,16.67
2018-03-16T08:42:18.427Z,16.85
2018-03-16T08:44:45.087Z,16.74
2018-03-16T08:47:10.901Z,16.70
2018-03-16T08:49:36.703Z,16.66
2018-03-16T08:52:02.511Z,16.40
2018-03-16T08:54:28.310Z,16.73
2018-03-16T08:56:54.122Z,16.56
2018-03-16T08:59:19.974Z,16.80
2018-03-16T09:01:45.774Z,16.61
2018-03-16T09:04:11.583Z,16.80
2018-03-16T09:06:37.393Z,16.81
2018-03-16T09:09:03.233Z,16.61
2018-03-16T09:11:29.031Z,16.53
2018-03-16T09:13:54.834Z,16.52
2018-03-16T09:16:20.646Z,16.63
2018-03-16T09:18:46.697Z,16.63
2018-03-16T09:21:13.546Z,16.58
2018-03-16T09:23:39.396Z,16.63
2018-03-16T09:26:05.276Z,16.67
2018-03-16T09:28:31.091Z,16.58
2018-03-16T09:30:56.901Z,16.82
2018-03-16T09:33:23.526Z,16.67
2018-03-16T09:35:50.294Z,16.66
2018-03-16T09:38:16.171Z,16.74
2018-03-16T09:40:42.980Z,16.76
2018-03-16T09:43:09.660Z,16.76
2018-03-16T09:45:35.491Z,16.82
2018-03-16T09:48:01.317Z,16.63
2018-03-16T09:50:27.201Z,16.67
2018-03-16T09:52:53.999Z,16.58
2018-03-16T09:55:24.668Z,16.66
2018-03-16T09:57:50.494Z,16.72
2018-03-16T10:00:17.350Z,16.62
2018-03-16T10:02:43.181Z,16.56
2018-03-16T10:05:09.024Z,16.78
2018-03-16T10:07:35.847Z,16.60
2018-03-16T10:10:01.704Z,16.63
2018-03-16T10:12:28.386Z,16.49
2018-03-16T10:14:54.240Z,16.46
2018-03-16T10:17:20.078Z,16.43
2018-03-16T10:19:45.917Z,16.52
2018-03-16T10:22:12.629Z,16.68
2018-03-16T10:24:39.459Z,16.76
2018-03-16T10:27:05.282Z,16.89
2018-03-16T10:29:31.098Z,16.81
2018-03-16T10:31:56.922Z,16.92
2018-03-16T10:34:22.745Z,16.91
2018-03-16T10:36:49.413Z,16.76
2018-03-16T10:39:15.237Z,16.59
2018-03-16T10:41:41.061Z,16.79
2018-03-16T10:44:06.874Z,16.75
2018-03-16T10:46:32.688Z,16.70
2018-03-16T10:48:58.537Z,16.61
2018-03-16T10:51:24.349Z,16.69
2018-03-16T10:53:50.207Z,16.63
2018-03-16T10:56:16.027Z,16.71
2018-03-16T10:58:42.790Z,16.65
2018-03-16T11:01:15.770Z,16.52
2018-03-16T11:03:44.558Z,16.51
2018-03-16T11:06:10.408Z,16.70
2018-03-16T11:08:37.187Z,16.75
2018-03-16T11:11:03.027Z,16.71
2018-03-16T11:13:29.058Z,16.78
2018-03-16T11:15:54.911Z,16.34
2018-03-16T11:18:21.605Z,16.53
2018-03-16T11:20:47.424Z,16.76
2018-03-16T11:23:13.235Z,16.19
2018-03-16T11:25:39.059Z,15.79
2018-03-16T11:28:05.704Z,15.75
2018-03-16T11:30:32.473Z,15.65
2018-03-16T11:32:58.347Z,15.62
2018-03-16T11:35:25.082Z,15.57
2018-03-16T11:37:51.038Z,15.60
2018-03-16T11:40:16.857Z,15.60
2018-03-16T11:42:43.611Z,15.42
2018-03-16T11:45:09.431Z,15.25
2018-03-16T11:47:36.211Z,15.44
2018-03-16T11:50:02.900Z,15.83
2018-03-16T11:52:28.714Z,15.83
2018-03-16T11:54:54.588Z,15.64
2018-03-16T11:57:21.228Z,15.61
2018-03-16T11:59:47.047Z,15.48
2018-03-16T12:02:12.875Z,15.38
2018-03-16T12:04:38.730Z,15.59
2018-03-16T12:07:04.563Z,15.91
2018-03-16T12:09:30.378Z,15.58
2018-03-16T12:11:56.198Z,15.47
2018-03-16T12:14:22.025Z,15.88
2018-03-16T12:16:47.868Z,15.89
2018-03-16T12:19:13.688Z,16.18
2018-03-16T12:21:39.513Z,16.20
2018-03-16T12:24:05.352Z,16.27
2018-03-16T12:26:31.191Z,16.30
2018-03-16T12:28:57.019Z,16.48
2018-03-16T12:31:22.837Z,16.43
2018-03-16T12:33:48.668Z,16.50
2018-03-16T12:36:14.506Z,16.59
2018-03-16T12:38:40.330Z,16.39
2018-03-16T12:41:07.046Z,16.41
2018-03-16T12:43:32.883Z,16.46
2018-03-16T12:45:59.750Z,16.53
2018-03-16T12:48:26.646Z,16.46
2018-03-16T12:50:53.645Z,16.58
2018-03-16T12:53:20.438Z,16.41
2018-03-16T12:55:47.294Z,16.58
2018-03-16T12:58:13.123Z,16.72
2018-03-16T13:00:39.810Z,16.66
2018-03-16T13:03:06.461Z,16.80
2018-03-16T13:05:32.286Z,16.71
2018-03-16T13:07:58.156Z,16.66
2018-03-16T13:10:24.056Z,16.56
2018-03-16T13:12:49.882Z,16.67
2018-03-16T13:15:15.761Z,16.71
2018-03-16T13:17:41.626Z,16.43
2018-03-16T13:20:07.475Z,16.63
2018-03-16T13:22:33.309Z,16.45
2018-03-16T13:24:59.195Z,16.52
2018-03-16T13:27:25.051Z,16.30
2018-03-16T13:29:50.937Z,16.45
2018-03-16T13:32:16.796Z,16.41
2018-03-16T13:34:43.458Z,16.31
2018-03-16T13:37:09.275Z,16.34
2018-03-16T13:39:35.106Z,16.38
2018-03-16T13:42:00.966Z,16.52
2018-03-16T13:44:27.767Z,16.50
2018-03-16T13:46:53.641Z,16.46
2018-03-16T13:49:20.258Z,16.62
2018-03-16T13:51:46.128Z,16.51
2018-03-16T13:54:12.972Z,16.53
2018-03-16T13:56:38.815Z,16.52
2018-03-16T13:59:04.662Z,16.65
2018-03-16T14:01:30.492Z,16.57
2018-03-16T14:03:56.318Z,16.49
2018-03-16T14:06:23.123Z,16.62
2018-03-16T14:08:48.955Z,16.42
2018-03-16T14:11:15.718Z,16.49
2018-03-16T14:13:42.460Z,16.39
2018-03-16T14:16:08.292Z,16.32
2018-03-16T14:18:34.155Z,16.45
2018-03-16T14:21:00.795Z,16.42
2018-03-16T14:23:27.599Z,16.49
2018-03-16T14:25:53.418Z,16.39
2018-03-16T14:28:19.241Z,16.22
2018-03-16T14:30:45.924Z,16.38
2018-03-16T14:33:11.766Z,16.46
2018-03-16T14:35:38.424Z,16.60
2018-03-16T14:38:04.240Z,16.55
2018-03-16T14:40:30.060Z,16.56
2018-03-16T14:42:55.915Z,16.55
2018-03-16T14:45:21.744Z,16.57
2018-03-16T14:47:47.569Z,16.46
2018-03-16T14:50:13.383Z,16.54
2018-03-16T14:52:39.194Z,16.45
2018-03-16T14:55:05.006Z,16.55
2018-03-16T14:57:30.814Z,16.61
2018-03-16T14:59:56.635Z,16.52
2018-03-16T15:02:22.483Z,16.53
2018-03-16T15:04:48.298Z,16.57
2018-03-16T15:07:14.114Z,16.42
2018-03-16T15:09:39.932Z,16.40
2018-03-16T15:12:05.751Z,16.51
2018-03-16T15:14:31.573Z,16.49
2018-03-16T15:16:58.263Z,16.53
2018-03-16T15:19:24.125Z,16.56
2018-03-16T15:21:50.868Z,16.63
2018-03-16T15:24:17.634Z,16.66
2018-03-16T15:26:43.483Z,16.61
2018-03-16T15:29:09.327Z,16.50
2018-03-16T15:31:35.154Z,16.45
2018-03-16T15:34:00.974Z,16.40
2018-03-16T15:36:26.790Z,16.57
2018-03-16T15:38:52.610Z,16.51
2018-03-16T15:41:18.467Z,16.59
2018-03-16T15:43:44.274Z,16.39
2018-03-16T15:46:10.085Z,16.60
2018-03-16T15:48:36.854Z,16.56
2018-03-16T15:51:02.705Z,16.42
2018-03-16T15:53:28.522Z,16.37
2018-03-16T15:55:54.344Z,16.53
2018-03-16T15:58:21.138Z,16.55
2018-03-16T16:00:47.970Z,16.63
2018-03-16T16:03:13.838Z,16.55
2018-03-16T16:05:40.547Z,16.58
2018-03-16T16:08:06.358Z,16.57
2018-03-16T16:10:32.983Z,16.50
2018-03-16T16:12:58.838Z,16.55
2018-03-16T16:15:24.658Z,16.61
2018-03-16T16:17:50.539Z,16.50
2018-03-16T16:20:17.274Z,16.35
2018-03-16T16:22:44.046Z,16.30
2018-03-16T16:25:10.762Z,16.46
2018-03-16T16:27:37.437Z,16.51
2018-03-16T16:30:03.304Z,16.48
2018-03-16T16:32:29.125Z,16.46
2018-03-16T16:34:55.850Z,16.38
2018-03-16T16:37:21.671Z,16.52
2018-03-16T16:39:47.555Z,16.49
2018-03-16T16:42:13.378Z,16.49
2018-03-16T16:44:40.272Z,16.52
2018-03-16T16:47:06.128Z,16.41
2018-03-16T16:49:31.954Z,16.39
2018-03-16T16:51:58.623Z,16.45
2018-03-16T16:54:25.388Z,16.62
2018-03-16T16:56:51.218Z,16.77
2018-03-16T16:59:17.923Z,16.40
2018-03-16T17:01:43.740Z,16.58
2018-03-16T17:04:10.353Z,16.51
2018-03-16T17:06:36.216Z,16.48
2018-03-16T17:09:02.914Z,16.40
2018-03-16T17:11:29.599Z,16.43
2018-03-16T17:13:55.424Z,16.58
2018-03-16T17:16:22.264Z,16.53
2018-03-16T17:18:48.083Z,16.51
2018-03-16T17:21:14.750Z,16.70
2018-03-16T17:23:41.521Z,16.58
2018-03-16T17:26:08.142Z,16.49
2018-03-16T17:28:34.004Z,16.50
2018-03-16T17:31:00.774Z,16.58
2018-03-16T17:33:27.573Z,16.56
2018-03-16T17:36:01.419Z,16.67
2018-03-16T17:38:27.276Z,16.61
2018-03-16T17:40:53.094Z,16.67
2018-03-16T17:43:18.906Z,16.65
2018-03-16T17:45:45.726Z,16.63
2018-03-16T17:48:12.583Z,16.52
2018-03-16T17:50:39.352Z,16.58
2018-03-16T17:53:05.997Z,16.43
2018-03-16T17:55:32.751Z,16.44
2018-03-16T17:57:59.646Z,16.42
2018-03-16T18:00:38.149Z,16.33
2018-03-16T18:03:04.094Z,16.39
2018-03-16T18:05:30.870Z,16.43
2018-03-16T18:07:57.655Z,16.25
2018-03-16T18:10:23.478Z,16.56
2018-03-16T18:12:49.294Z,16.17
2018-03-16T18:15:15.107Z,16.38
2018-03-16T18:17:40.913Z,16.38
2018-03-16T18:20:06.746Z,16.35
2018-03-16T18:22:32.600Z,16.30
2018-03-16T18:24:59.378Z,16.20
2018-03-16T18:27:25.235Z,16.32
2018-03-16T18:29:51.110Z,16.47
2018-03-16T18:32:17.037Z,16.45
2018-03-16T18:34:42.898Z,16.51
2018-03-16T18:37:09.550Z,16.46
2018-03-16T18:39:36.330Z,16.42
2018-03-16T18:42:03.138Z,16.51
2018-03-16T18:44:28.954Z,16.31
2018-03-16T18:46:54.770Z,16.53
2018-03-16T18:49:20.615Z,16.52
2018-03-16T18:51:46.448Z,16.44
2018-03-16T18:54:16.350Z,16.51
2018-03-16T18:56:46.826Z,16.41
2018-03-16T18:59:12.660Z,16.37
2018-03-16T19:01:38.499Z,16.13
2018-03-16T19:04:04.335Z,16.36
2018-03-16T19:06:30.167Z,16.54
2018-03-16T19:08:56.024Z,16.40
2018-03-16T19:11:21.880Z,16.51
2018-03-16T19:13:48.637Z,16.59
2018-03-16T19:16:15.359Z,16.64
2018-03-16T19:18:42.215Z,16.69
2018-03-16T19:21:08.986Z,16.52
2018-03-16T19:23:34.817Z,16.55
2018-03-16T19:26:00.639Z,16.47
2018-03-16T19:28:26.466Z,16.40
2018-03-16T19:30:52.324Z,16.44
2018-03-16T19:33:18.231Z,16.47
2018-03-16T19:35:45.037Z,16.40
2018-03-16T19:38:10.891Z,16.36
2018-03-16T19:40:36.738Z,15.83
2018-03-16T19:43:02.583Z,15.79
2018-03-16T19:45:28.417Z,16.16
2018-03-16T19:47:54.270Z,16.22
2018-03-16T19:50:20.172Z,16.24
2018-03-16T19:52:46.948Z,16.41
2018-03-16T19:55:13.899Z,16.23
2018-03-16T19:57:40.967Z,16.29
2018-03-16T20:00:07.727Z,16.35
2018-03-16T20:02:33.608Z,16.43
2018-03-16T20:05:05.194Z,16.17
2018-03-16T20:07:32.831Z,16.48
2018-03-16T20:09:58.762Z,16.31
2018-03-16T20:12:24.610Z,16.08
2018-03-16T20:14:50.562Z,16.25
2018-03-16T20:17:16.478Z,16.19
2018-03-16T20:19:42.331Z,16.23
2018-03-16T20:22:08.331Z,16.40
2018-03-16T20:24:34.304Z,16.18
2018-03-16T20:27:00.257Z,16.25
2018-03-16T20:29:26.140Z,16.36
2018-03-16T20:31:51.994Z,16.22
2018-03-16T20:34:17.840Z,16.03
2018-03-16T20:36:43.772Z,16.26
2018-03-16T20:39:10.449Z,16.06
2018-03-16T20:41:36.294Z,16.11
2018-03-16T20:44:02.323Z,16.17
2018-03-16T20:46:28.171Z,16.07
2018-03-16T20:48:54.043Z,16.16
2018-03-16T20:51:20.920Z,16.29
2018-03-16T20:53:46.769Z,16.26
2018-03-16T20:56:13.635Z,15.95
2018-03-16T20:58:39.483Z,16.08
2018-03-16T21:01:06.208Z,15.94
2018-03-16T21:03:32.051Z,15.87
2018-03-16T21:05:59.372Z,15.94
2018-03-16T21:08:27.147Z,16.14
2018-03-16T21:10:53.935Z,16.14
2018-03-16T21:13:19.822Z,16.20
2018-03-16T21:15:46.507Z,15.84
2018-03-16T21:18:13.256Z,16.08
2018-03-16T21:20:40.086Z,16.07
2018-03-16T21:23:05.968Z,16.12
2018-03-16T21:25:31.796Z,16.28
2018-03-16T21:27:58.518Z,16.08
2018-03-16T21:30:24.358Z,15.88
2018-03-16T21:32:51.016Z,16.05
2018-03-16T21:35:17.839Z,16.19
2018-03-16T21:37:44.535Z,16.25
2018-03-16T21:40:10.364Z,16.05
2018-03-16T21:42:36.232Z,16.04
2018-03-16T21:45:03.072Z,16.01
2018-03-16T21:47:28.903Z,16.01
2018-03-16T21:49:55.594Z,16.15
2018-03-16T21:52:21.435Z,15.89
2018-03-16T21:54:48.082Z,15.96
2018-03-16T21:57:13.937Z,16.08
2018-03-16T21:59:39.803Z,16.20
2018-03-16T22:02:06.609Z,15.95
2018-03-16T22:04:32.508Z,16.05
2018-03-16T22:06:59.337Z,16.11
2018-03-16T22:09:25.164Z,15.96
2018-03-16T22:11:51.802Z,16.11
2018-03-16T22:14:17.658Z,15.73
2018-03-16T22:16:44.441Z,15.83
2018-03-16T22:19:11.093Z,16.00
2018-03-16T22:21:37.906Z,16.07
2018-03-16T22:24:03.739Z,16.09
2018-03-16T22:26:29.604Z,16.04
2018-03-16T22:28:56.311Z,16.20
2018-03-16T22:31:22.968Z,16.00
2018-03-16T22:33:49.629Z,15.91
2018-03-16T22:36:15.498Z,15.75
2018-03-16T22:38:42.314Z,15.45
2018-03-16T22:41:08.172Z,15.71
2018-03-16T22:43:34.193Z,15.63
2018-03-16T22:46:00.047Z,15.86
2018-03-16T22:48:26.675Z,15.63
2018-03-16T22:50:52.500Z,15.90
2018-03-16T22:53:18.367Z,15.79
2018-03-16T22:55:44.279Z,15.66
2018-03-16T22:58:10.103Z,15.83
2018-03-16T23:00:36.058Z,15.86
2018-03-16T23:03:02.862Z,15.75
2018-03-16T23:05:29.935Z,15.88
2018-03-16T23:07:55.756Z,15.72
2018-03-16T23:10:21.596Z,15.76
2018-03-16T23:12:47.795Z,15.97
2018-03-16T23:15:13.654Z,15.74
2018-03-16T23:17:40.342Z,15.88
2018-03-16T23:20:07.107Z,16.06
2018-03-16T23:22:33.721Z,15.97
2018-03-16T23:24:59.552Z,15.87
2018-03-16T23:27:25.419Z,15.57
2018-03-16T23:29:51.772Z,15.51
2018-03-16T23:32:18.666Z,15.80
2018-03-16T23:34:44.522Z,15.66
2018-03-16T23:37:10.352Z,15.76
2018-03-16T23:39:36.177Z,15.65
2018-03-16T23:42:02.917Z,15.77
2018-03-16T23:44:28.736Z,15.76
2018-03-16T23:46:54.696Z,15.94
2018-03-16T23:49:20.528Z,15.98
2018-03-16T23:51:46.353Z,15.95
2018-03-16T23:54:12.179Z,16.04
2018-03-16T23:56:38.012Z,15.99
2018-03-16T23:59:03.835Z,16.11
